Time;durP1;ratioP1;P1;durP2;ratioP2;P2;SDS_P1;SDS_P2;PMS_P1;PMS_P2;Temp;Humidity;BMP_temperature;BMP_pressure;BME280_temperature;BME280_humidity;BME280_pressure;Samples;Min_cycle;Max_cycle;Signal;HPM_P1;HPM_P2
2023/09/13 04:01:25;;;;;;;3.10;2.57;;;21.80;83.50;;;;;;5604615;23;20511;-69
2023/09/13 04:03:52;;;;;;;3.10;2.80;;;21.90;83.00;;;;;;4919328;29;20868;-69
2023/09/13 04:06:18;;;;;;;3.03;2.73;;;21.90;82.90;;;;;;4919620;29;20522;-68
2023/09/13 04:08:45;;;;;;;2.93;2.63;;;21.90;82.50;;;;;;4919547;29;20448;-68
2023/09/13 04:11:12;;;;;;;3.80;3.30;;;21.90;82.80;;;;;;4919359;29;20489;-69
2023/09/13 04:13:38;;;;;;;3.20;2.57;;;21.90;82.70;;;;;;4919164;29;20456;-69
2023/09/13 04:16:07;;;;;;;3.27;2.77;;;22.00;82.60;;;;;;4928304;23;20497;-68
2023/09/13 04:18:35;;;;;;;4.10;3.03;;;22.00;82.30;;;;;;4919302;29;20444;-68
2023/09/13 04:21:02;;;;;;;4.10;3.03;;;22.00;82.40;;;;;;4919292;29;20441;-68
2023/09/13 04:23:29;;;;;;;3.83;3.40;;;21.90;82.70;;;;;;4919275;29;20459;-68
2023/09/13 04:25:56;;;;;;;3.30;3.00;;;21.90;82.50;;;;;;4918890;29;21012;-68
2023/09/13 04:28:22;;;;;;;3.23;2.93;;;21.90;82.60;;;;;;4919257;29;20456;-68
2023/09/13 04:30:49;;;;;;;3.10;2.77;;;21.90;82.40;;;;;;4918746;29;21044;-68
2023/09/13 04:33:16;;;;;;;2.90;2.50;;;21.90;83.00;;;;;;4918890;29;20504;-68
2023/09/13 04:35:44;;;;;;;3.23;2.93;;;21.90;83.00;;;;;;4919039;29;20496;-67
2023/09/13 04:38:10;;;;;;;3.30;2.67;;;21.90;82.80;;;;;;4919004;29;20440;-68
2023/09/13 04:40:41;;;;;;;3.37;3.00;;;21.90;82.50;;;;;;4919073;29;20452;-68
2023/09/13 04:43:23;;;;;;;3.33;3.03;;;21.90;82.50;;;;;;4919601;29;20815;-68
2023/09/13 04:45:51;;;;;;;3.43;2.77;;;21.90;82.50;;;;;;4917110;29;20540;-68
2023/09/13 04:48:18;;;;;;;3.57;2.80;;;21.90;82.30;;;;;;4918529;29;20488;-68
2023/09/13 04:50:46;;;;;;;3.33;3.00;;;22.00;82.20;;;;;;4918775;29;20492;-68
2023/09/13 04:53:13;;;;;;;3.50;3.03;;;22.00;82.20;;;;;;4918476;29;20453;-68
2023/09/13 04:55:43;;;;;;;3.37;2.40;;;22.00;82.20;;;;;;4918379;29;20469;-68
2023/09/13 04:58:10;;;;;;;3.20;2.90;;;22.00;82.00;;;;;;4918397;29;20535;-68
2023/09/13 05:00:37;;;;;;;4.97;2.70;;;22.00;82.20;;;;;;4918418;29;21052;-68
2023/09/13 05:03:03;;;;;;;2.83;2.60;;;22.00;82.00;;;;;;4919395;29;20455;-68
2023/09/13 05:05:30;;;;;;;3.87;3.40;;;22.00;82.00;;;;;;4918539;29;20468;-68
2023/09/13 05:07:58;;;;;;;4.37;2.93;;;22.00;82.10;;;;;;4918310;29;20942;-68
2023/09/13 05:10:25;;;;;;;2.90;2.60;;;22.00;82.20;;;;;;4918403;29;20485;-68
2023/09/13 05:12:51;;;;;;;3.23;2.53;;;22.00;82.40;;;;;;4918426;29;20449;-68
2023/09/13 05:15:18;;;;;;;2.97;2.67;;;22.00;82.60;;;;;;4919559;29;20922;-68
2023/09/13 05:17:45;;;;;;;3.60;3.30;;;22.00;82.60;;;;;;4918445;29;20436;-70
2023/09/13 05:20:11;;;;;;;2.63;2.43;;;22.00;82.60;;;;;;4918214;29;20448;-72
2023/09/13 05:22:38;;;;;;;3.00;2.63;;;22.00;82.70;;;;;;4917879;29;20455;-71
2023/09/13 05:25:07;;;;;;;3.23;2.93;;;22.00;82.60;;;;;;4917729;29;20957;-71
2023/09/13 05:27:34;;;;;;;2.90;2.60;;;22.00;82.60;;;;;;4918248;29;20452;-72
2023/09/13 05:30:01;;;;;;;3.20;2.90;;;22.10;82.60;;;;;;4917936;29;20489;-72
2023/09/13 05:32:27;;;;;;;3.00;2.60;;;22.10;82.30;;;;;;4917991;29;20868;-71
2023/09/13 05:34:54;;;;;;;3.70;3.10;;;22.20;82.20;;;;;;4917906;29;20453;-72
2023/09/13 05:37:21;;;;;;;3.37;2.50;;;22.20;82.00;;;;;;4917850;29;20472;-72
2023/09/13 05:39:47;;;;;;;3.30;2.90;;;22.20;81.80;;;;;;4917848;29;20445;-72
2023/09/13 05:42:15;;;;;;;3.40;3.10;;;22.30;81.90;;;;;;4917810;29;20449;-74
2023/09/13 05:44:42;;;;;;;2.70;2.50;;;22.30;81.80;;;;;;4917806;29;20449;-77
2023/09/13 05:47:09;;;;;;;3.97;3.03;;;22.20;81.30;;;;;;4917687;29;20468;-66
2023/09/13 05:49:35;;;;;;;4.03;3.00;;;22.10;81.60;;;;;;4917591;29;20449;-77
2023/09/13 05:52:02;;;;;;;3.10;2.80;;;22.10;81.80;;;;;;4917666;29;20449;-77
2023/09/13 05:54:29;;;;;;;3.10;2.80;;;22.10;81.50;;;;;;4917298;29;20485;-76
2023/09/13 05:56:56;;;;;;;3.20;2.90;;;22.10;81.20;;;;;;4917231;29;21013;-77
2023/09/13 05:59:24;;;;;;;3.43;2.50;;;22.20;81.40;;;;;;4917149;29;20445;-77
2023/09/13 06:01:51;;;;;;;3.27;2.70;;;22.10;81.30;;;;;;4917435;29;20873;-76
2023/09/13 06:04:18;;;;;;;2.57;2.37;;;22.10;81.20;;;;;;4917285;29;20452;-76
2023/09/13 06:06:45;;;;;;;3.20;2.67;;;21.80;81.80;;;;;;4917339;29;20471;-75
2023/09/13 06:09:11;;;;;;;2.70;2.40;;;21.80;82.40;;;;;;4917621;29;20453;-76
2023/09/13 06:11:38;;;;;;;2.80;2.50;;;21.90;82.10;;;;;;4917297;29;20493;-76
2023/09/13 06:14:07;;;;;;;3.50;2.70;;;21.90;82.00;;;;;;4917314;29;20445;-76
2023/09/13 06:16:35;;;;;;;2.67;2.47;;;22.00;81.70;;;;;;4916897;29;20484;-74
2023/09/13 06:19:02;;;;;;;3.00;2.60;;;22.00;81.80;;;;;;4917222;29;20526;-76
2023/09/13 06:21:28;;;;;;;3.30;3.00;;;22.00;81.70;;;;;;4917127;29;20444;-75
2023/09/13 06:23:55;;;;;;;2.63;2.43;;;22.00;81.60;;;;;;4917159;29;20456;-76
2023/09/13 06:26:22;;;;;;;2.73;2.43;;;22.00;81.50;;;;;;4917106;29;20465;-75
2023/09/13 06:28:48;;;;;;;2.60;2.40;;;22.00;81.60;;;;;;4917110;29;20456;-76
2023/09/13 06:31:15;;;;;;;2.40;2.03;;;22.00;81.30;;;;;;4916999;29;20481;-76
2023/09/13 06:33:43;;;;;;;2.73;2.20;;;22.10;81.20;;;;;;4917023;29;20459;-76
2023/09/13 06:36:10;;;;;;;3.37;3.07;;;22.10;81.30;;;;;;4916986;29;20659;-76
2023/09/13 06:38:37;;;;;;;2.43;2.20;;;22.20;81.20;;;;;;4917032;29;20448;-76
2023/09/13 06:41:04;;;;;;;2.90;2.60;;;22.20;81.10;;;;;;4917022;29;20445;-76
2023/09/13 06:43:30;;;;;;;2.80;2.40;;;22.30;81.10;;;;;;4916948;29;20459;-76
2023/09/13 06:45:57;;;;;;;3.53;2.83;;;22.30;81.20;;;;;;4916937;29;20468;-76
2023/09/13 06:48:24;;;;;;;3.90;3.20;;;22.40;81.30;;;;;;4916965;29;20448;-76
2023/09/13 06:50:52;;;;;;;3.10;2.60;;;22.40;80.90;;;;;;4916833;29;20489;-76
2023/09/13 06:53:18;;;;;;;2.90;2.47;;;22.20;81.40;;;;;;4916876;29;20453;-76
2023/09/13 06:55:45;;;;;;;3.07;2.40;;;22.30;81.80;;;;;;4916739;29;20468;-76
2023/09/13 06:58:12;;;;;;;3.03;2.73;;;22.40;81.00;;;;;;4916754;29;20452;-76
2023/09/13 07:00:39;;;;;;;3.17;2.87;;;22.40;80.60;;;;;;4916835;29;20452;-76
2023/09/13 07:03:08;;;;;;;3.47;2.73;;;22.30;81.00;;;;;;4916761;29;20458;-76
2023/09/13 07:05:35;;;;;;;3.30;2.70;;;22.30;81.90;;;;;;4916676;29;20504;-76
2023/09/13 07:08:03;;;;;;;4.00;3.23;;;22.40;81.60;;;;;;4916372;29;20456;-76
2023/09/13 07:10:30;;;;;;;3.40;3.10;;;22.40;81.00;;;;;;4918768;29;20484;-75
2023/09/13 07:12:57;;;;;;;4.90;3.23;;;22.30;81.10;;;;;;4920111;29;20813;-74
2023/09/13 07:15:26;;;;;;;3.60;3.30;;;22.00;82.00;;;;;;4920598;29;20580;-75
2023/09/13 07:17:53;;;;;;;3.90;2.97;;;21.90;82.60;;;;;;4920441;29;20433;-74
2023/09/13 07:20:20;;;;;;;3.40;3.10;;;22.00;83.00;;;;;;4920064;29;20961;-74
2023/09/13 07:22:47;;;;;;;4.20;3.37;;;22.10;82.80;;;;;;4920320;29;20444;-74
2023/09/13 07:25:15;;;;;;;3.50;2.80;;;22.20;82.30;;;;;;4920220;29;20460;-75
2023/09/13 07:27:41;;;;;;;3.97;3.67;;;22.30;81.80;;;;;;4920220;29;20478;-75
2023/09/13 07:30:10;;;;;;;4.80;2.93;;;22.40;81.70;;;;;;4920111;29;20452;-75
2023/09/13 07:32:37;;;;;;;3.10;2.80;;;22.40;81.70;;;;;;4919822;29;20849;-75
2023/09/13 07:35:05;;;;;;;3.47;3.17;;;22.50;82.00;;;;;;4920030;29;20480;-75
2023/09/13 07:37:33;;;;;;;3.30;3.00;;;22.60;81.90;;;;;;4920064;29;20806;-74
2023/09/13 07:39:59;;;;;;;2.90;2.53;;;22.60;81.40;;;;;;4920022;29;20464;-75
2023/09/13 07:42:27;;;;;;;3.43;3.10;;;22.60;80.40;;;;;;4920010;29;20825;-75
2023/09/13 07:44:54;;;;;;;3.10;2.80;;;22.70;80.60;;;;;;4919953;29;20463;-75
2023/09/13 07:47:22;;;;;;;4.73;3.17;;;22.70;80.20;;;;;;4919881;29;20468;-75
2023/09/13 07:49:48;;;;;;;4.73;3.40;;;22.80;80.00;;;;;;4919777;29;20448;-75
2023/09/13 07:52:15;;;;;;;3.30;2.87;;;22.70;79.90;;;;;;4919434;29;20898;-75
2023/09/13 07:54:43;;;;;;;3.17;2.87;;;22.70;80.10;;;;;;4919766;29;20447;-75
2023/09/13 07:57:09;;;;;;;4.53;2.47;;;22.70;80.20;;;;;;4919686;29;20535;-75
2023/09/13 07:59:37;;;;;;;3.93;3.20;;;22.80;80.40;;;;;;4919722;29;20493;-75
2023/09/13 08:02:05;;;;;;;3.13;2.83;;;22.80;80.50;;;;;;4919744;29;20444;-75
2023/09/13 08:04:31;;;;;;;3.00;2.70;;;22.90;80.70;;;;;;4919518;29;20452;-75
2023/09/13 08:06:59;;;;;;;3.00;2.70;;;23.00;79.80;;;;;;4919518;29;20472;-75
2023/09/13 08:09:25;;;;;;;3.33;2.40;;;23.00;79.50;;;;;;4919509;29;20482;-76
2023/09/13 08:11:53;;;;;;;3.10;2.73;;;23.00;79.30;;;;;;4919453;29;20867;-75
2023/09/13 08:14:21;;;;;;;3.27;2.50;;;22.90;79.60;;;;;;4919494;29;20444;-76
2023/09/13 08:16:49;;;;;;;3.10;2.50;;;23.00;79.10;;;;;;4918972;29;20869;-75
2023/09/13 08:19:15;;;;;;;2.83;2.53;;;23.00;78.80;;;;;;4919367;29;20449;-75
2023/09/13 08:21:42;;;;;;;3.00;2.80;;;23.00;79.30;;;;;;4918312;29;20452;-75
2023/09/13 08:24:09;;;;;;;2.90;2.37;;;23.00;79.20;;;;;;4919226;29;20843;-75
2023/09/13 08:26:36;;;;;;;3.73;3.00;;;23.00;79.50;;;;;;4919200;29;20484;-75
2023/09/13 08:29:03;;;;;;;4.17;2.97;;;23.10;79.40;;;;;;4918864;29;20449;-75
2023/09/13 08:31:30;;;;;;;2.40;2.07;;;23.10;79.30;;;;;;4918775;29;20524;-75
2023/09/13 08:33:58;;;;;;;2.70;2.07;;;23.10;79.40;;;;;;4918972;29;20998;-75
2023/09/13 08:36:25;;;;;;;2.50;2.27;;;23.10;79.60;;;;;;4923248;29;20468;-76
2023/09/13 08:38:51;;;;;;;2.30;2.00;;;23.10;78.00;;;;;;4922520;29;20457;-73
2023/09/13 08:41:18;;;;;;;2.93;2.03;;;23.10;77.90;;;;;;4923459;29;20451;-73
2023/09/13 08:43:45;;;;;;;3.10;2.50;;;23.00;78.20;;;;;;4928553;29;20453;-74
2023/09/13 08:46:14;;;;;;;2.50;2.30;;;23.00;78.30;;;;;;4922821;29;20468;-74
2023/09/13 08:48:42;;;;;;;2.40;1.97;;;23.00;78.10;;;;;;4919507;29;20865;-74
2023/09/13 08:51:11;;;;;;;2.70;2.03;;;23.00;78.00;;;;;;4918476;29;20487;-73
2023/09/13 08:53:40;;;;;;;2.80;2.33;;;22.90;78.80;;;;;;4918908;29;20453;-74
2023/09/13 08:56:08;;;;;;;2.63;2.43;;;22.90;79.10;;;;;;4918788;29;20472;-74
2023/09/13 08:58:35;;;;;;;2.60;2.40;;;22.90;79.00;;;;;;4918351;29;20488;-74
2023/09/13 09:01:04;;;;;;;3.10;2.00;;;23.00;79.30;;;;;;4918645;29;20484;-74
2023/09/13 09:03:34;;;;;;;2.43;2.23;;;23.00;79.60;;;;;;4918786;29;20484;-74
2023/09/13 09:06:03;;;;;;;2.77;2.40;;;23.00;79.50;;;;;;4918483;29;20479;-75
2023/09/13 09:08:31;;;;;;;2.30;1.97;;;23.00;79.50;;;;;;4918430;29;20488;-74
2023/09/13 09:10:59;;;;;;;2.53;2.33;;;23.00;79.50;;;;;;4918309;29;20512;-74
2023/09/13 09:13:28;;;;;;;3.20;1.97;;;23.00;79.60;;;;;;4918364;29;20535;-74
2023/09/13 09:15:57;;;;;;;2.33;1.73;;;22.90;79.20;;;;;;4918011;29;20484;-74
2023/09/13 09:18:25;;;;;;;2.70;2.37;;;22.90;78.60;;;;;;4918203;29;20448;-73
2023/09/13 09:20:53;;;;;;;2.77;2.03;;;22.80;78.70;;;;;;4917897;29;20818;-73
2023/09/13 09:23:21;;;;;;;2.70;2.00;;;22.80;79.00;;;;;;4918171;29;20453;-73
2023/09/13 09:25:51;;;;;;;2.53;2.17;;;22.80;79.00;;;;;;4917824;29;21008;-73
2023/09/13 09:28:18;;;;;;;2.30;2.10;;;22.70;79.20;;;;;;4918056;29;20451;-73
2023/09/13 09:30:45;;;;;;;3.13;2.20;;;22.70;79.20;;;;;;4917917;29;20455;-74
2023/09/13 09:33:12;;;;;;;2.40;2.10;;;22.60;79.10;;;;;;4917808;29;20499;-74
2023/09/13 09:35:39;;;;;;;2.33;2.10;;;22.60;79.50;;;;;;4917849;29;20469;-74
2023/09/13 09:38:21;;;;;;;2.40;1.80;;;22.60;79.90;;;;;;4917900;29;20508;-72
2023/09/13 09:40:50;;;;;;;2.80;1.90;;;22.60;79.20;;;;;;4917929;29;20429;-73
2023/09/13 09:43:16;;;;;;;2.60;1.97;;;22.70;80.30;;;;;;4917843;29;20487;-73
2023/09/13 09:45:43;;;;;;;2.70;2.50;;;22.80;80.50;;;;;;4917438;29;20882;-74
2023/09/13 09:48:11;;;;;;;2.33;1.83;;;22.90;80.10;;;;;;4917806;29;20465;-74
2023/09/13 09:50:39;;;;;;;2.37;2.17;;;22.90;79.90;;;;;;4917766;29;20456;-74
2023/09/13 09:53:09;;;;;;;2.20;1.63;;;23.00;79.90;;;;;;4917724;29;20535;-74
2023/09/13 09:55:36;;;;;;;2.07;1.67;;;23.00;79.60;;;;;;4917675;29;20497;-74
2023/09/13 09:58:05;;;;;;;2.40;1.90;;;23.00;79.40;;;;;;4917722;29;20453;-74
2023/09/13 10:00:43;;;;;;;2.10;1.67;;;23.00;79.40;;;;;;4917626;29;20444;-74
2023/09/13 10:03:15;;;;;;;2.40;1.80;;;23.00;79.10;;;;;;4917623;29;20428;-73
2023/09/13 10:05:51;;;;;;;2.20;1.43;;;23.00;78.80;;;;;;4917624;29;20476;-74
2023/09/13 10:08:18;;;;;;;2.60;1.57;;;23.00;79.10;;;;;;4917692;29;20434;-74
2023/09/13 10:10:45;;;;;;;3.07;2.47;;;22.90;79.00;;;;;;4917518;29;20471;-74
2023/09/13 10:13:15;;;;;;;2.87;1.70;;;23.00;79.20;;;;;;4917467;29;20492;-74
2023/09/13 10:15:42;;;;;;;2.87;1.50;;;22.90;79.40;;;;;;4962841;23;20488;-74
2023/09/13 10:18:13;;;;;;;2.20;1.77;;;23.00;79.10;;;;;;4917419;29;20463;-74
2023/09/13 10:20:43;;;;;;;1.90;1.20;;;23.00;79.10;;;;;;4917413;29;20465;-73
2023/09/13 10:23:14;;;;;;;2.50;1.50;;;22.90;78.70;;;;;;4918053;29;20424;-74
2023/09/13 10:25:44;;;;;;;2.47;1.60;;;23.00;78.60;;;;;;4917216;29;20429;-75
2023/09/13 10:28:17;;;;;;;2.50;1.60;;;22.90;77.40;;;;;;4917151;29;20452;-73
2023/09/13 10:30:46;;;;;;;2.00;1.40;;;22.90;77.60;;;;;;4917204;29;20444;-74
2023/09/13 10:33:14;;;;;;;2.10;1.60;;;23.00;77.20;;;;;;4916798;29;20484;-74
2023/09/13 10:35:44;;;;;;;2.47;1.80;;;23.10;77.60;;;;;;4917008;29;20449;-74
2023/09/13 10:38:17;;;;;;;2.30;1.60;;;23.20;77.60;;;;;;4917072;29;20469;-74
2023/09/13 10:40:50;;;;;;;2.30;2.00;;;23.20;77.30;;;;;;4917057;29;20433;-74
2023/09/13 10:43:18;;;;;;;2.63;2.03;;;23.20;76.00;;;;;;4917063;29;20488;-73
2023/09/13 10:45:45;;;;;;;2.60;2.30;;;23.20;76.10;;;;;;4922133;29;20468;-74
2023/09/13 10:48:13;;;;;;;2.23;1.67;;;23.30;76.70;;;;;;4923261;29;20503;-75
2023/09/13 10:50:39;;;;;;;3.30;1.93;;;23.10;76.40;;;;;;4922983;29;20451;-74
2023/09/13 10:53:07;;;;;;;2.83;2.20;;;23.00;75.80;;;;;;4923193;29;20484;-74
2023/09/13 10:55:34;;;;;;;2.63;2.10;;;23.00;76.70;;;;;;4922760;29;20882;-74
2023/09/13 10:58:02;;;;;;;3.40;2.07;;;23.10;77.90;;;;;;4923223;29;20445;-74
2023/09/13 11:00:32;;;;;;;6.70;2.50;;;23.00;77.30;;;;;;4923151;29;20452;-74
2023/09/13 11:02:59;;;;;;;2.63;2.43;;;23.10;77.10;;;;;;4923194;29;20535;-75
2023/09/13 11:05:28;;;;;;;2.70;2.43;;;23.30;76.50;;;;;;4923314;29;20448;-75
2023/09/13 11:07:55;;;;;;;2.60;2.30;;;23.40;76.40;;;;;;4923374;29;20455;-75
2023/09/13 11:10:22;;;;;;;2.30;1.70;;;23.50;76.70;;;;;;4923658;29;20459;-75
2023/09/13 11:12:50;;;;;;;2.20;1.93;;;23.70;76.60;;;;;;4923414;29;20489;-74
2023/09/13 11:15:21;;;;;;;2.60;2.00;;;23.90;75.80;;;;;;4923173;29;20452;-76
2023/09/13 11:17:49;;;;;;;2.50;1.97;;;24.00;74.20;;;;;;4923174;29;20550;-74
2023/09/13 11:20:27;;;;;;;2.10;1.67;;;24.00;73.90;;;;;;4923847;29;20475;-74
2023/09/13 11:23:08;;;;;;;2.47;1.87;;;24.10;72.60;;;;;;4923314;29;20433;-74
2023/09/13 11:25:36;;;;;;;2.87;2.03;;;24.20;71.80;;;;;;4923216;29;20445;-74
2023/09/13 11:28:27;;;;;;;2.30;1.90;;;24.10;72.10;;;;;;4922875;29;20978;-75
2023/09/13 11:30:58;;;;;;;2.40;1.90;;;24.20;72.70;;;;;;4923041;29;20444;-74
2023/09/13 11:33:27;;;;;;;2.10;1.83;;;24.10;73.10;;;;;;4922975;29;20472;-74
2023/09/13 11:35:56;;;;;;;2.30;2.10;;;24.00;74.20;;;;;;4922937;29;20496;-74
2023/09/13 11:38:23;;;;;;;2.27;1.67;;;24.10;73.50;;;;;;4922955;29;20537;-74
2023/09/13 11:40:51;;;;;;;2.00;1.60;;;24.20;72.70;;;;;;4923046;29;20452;-74
2023/09/13 11:43:22;;;;;;;2.07;1.60;;;24.40;72.70;;;;;;4923109;29;20452;-74
2023/09/13 11:45:50;;;;;;;2.37;2.00;;;24.50;71.30;;;;;;4922825;29;20887;-74
2023/09/13 11:48:21;;;;;;;2.63;1.97;;;24.70;71.30;;;;;;4923004;29;20460;-74
2023/09/13 11:50:51;;;;;;;2.40;1.80;;;24.70;70.20;;;;;;4922841;29;20480;-75
2023/09/13 11:53:25;;;;;;;2.50;2.10;;;24.80;70.50;;;;;;4923554;29;20547;-74
2023/09/13 11:55:55;;;;;;;2.50;2.07;;;24.80;70.40;;;;;;4922184;29;20466;-74
2023/09/13 11:58:31;;;;;;;3.37;1.73;;;24.90;70.50;;;;;;4920275;29;20452;-74
2023/09/13 12:00:59;;;;;;;3.10;2.03;;;24.90;71.50;;;;;;4920041;29;20922;-74
2023/09/13 12:03:27;;;;;;;2.40;1.97;;;24.90;70.50;;;;;;4920034;29;20475;-74
2023/09/13 12:05:56;;;;;;;1.97;1.60;;;24.90;70.40;;;;;;4919852;29;20480;-74
2023/09/13 12:08:24;;;;;;;1.90;1.70;;;25.00;71.30;;;;;;4919874;29;20456;-75
2023/09/13 12:10:51;;;;;;;2.17;1.70;;;25.20;70.90;;;;;;4920081;29;20810;-74
2023/09/13 12:13:18;;;;;;;3.97;1.73;;;25.30;69.70;;;;;;4919932;29;20492;-74
2023/09/13 12:15:58;;;;;;;2.00;1.60;;;25.30;70.60;;;;;;4920299;29;20478;-75
2023/09/13 12:18:25;;;;;;;2.77;1.80;;;25.50;68.50;;;;;;4919911;29;20456;-74
2023/09/13 12:20:52;;;;;;;2.10;1.73;;;25.80;70.20;;;;;;4919754;29;20821;-74
2023/09/13 12:23:20;;;;;;;2.20;1.50;;;26.20;69.20;;;;;;4919569;29;20445;-73
2023/09/13 12:25:47;;;;;;;2.43;1.73;;;26.20;67.30;;;;;;4920542;29;20469;-75
2023/09/13 12:28:28;;;;;;;2.10;1.60;;;26.30;67.40;;;;;;4919813;29;20484;-73
2023/09/13 12:30:56;;;;;;;2.20;1.93;;;26.30;67.50;;;;;;4919879;29;20437;-75
2023/09/13 12:33:23;;;;;;;2.80;2.10;;;26.00;69.20;;;;;;4919288;29;20488;-75
2023/09/13 12:35:51;;;;;;;1.90;1.50;;;26.10;68.60;;;;;;4919748;29;20520;-74
2023/09/13 12:38:19;;;;;;;3.40;1.93;;;26.10;68.20;;;;;;4919150;29;20528;-74
2023/09/13 12:40:55;;;;;;;2.43;1.67;;;26.00;67.60;;;;;;4919141;29;20453;-75
2023/09/13 12:43:28;;;;;;;2.23;1.60;;;25.90;67.90;;;;;;4919340;29;20520;-75
2023/09/13 12:45:55;;;;;;;2.10;1.53;;;25.90;68.10;;;;;;4919218;29;20479;-74
2023/09/13 12:48:22;;;;;;;2.70;2.00;;;25.70;68.50;;;;;;4919680;29;20825;-75
2023/09/13 12:50:49;;;;;;;2.10;1.80;;;25.60;68.40;;;;;;4919110;29;21002;-75
2023/09/13 12:53:15;;;;;;;2.50;1.70;;;25.60;67.50;;;;;;4918734;29;20484;-74
2023/09/13 12:55:43;;;;;;;2.00;1.60;;;25.40;67.70;;;;;;4919185;29;20866;-74
2023/09/13 12:58:11;;;;;;;2.30;1.87;;;25.40;68.60;;;;;;4919125;29;20445;-72
2023/09/13 13:00:50;;;;;;;2.17;1.77;;;25.30;68.70;;;;;;4919487;29;20449;-74
2023/09/13 13:03:16;;;;;;;2.20;1.80;;;25.20;69.00;;;;;;4919198;29;20488;-74
2023/09/13 13:05:44;;;;;;;2.13;1.63;;;25.30;69.10;;;;;;4918742;29;20456;-74
2023/09/13 13:08:11;;;;;;;3.10;2.30;;;25.40;69.20;;;;;;4917877;29;20887;-75
2023/09/13 13:10:53;;;;;;;2.20;1.73;;;25.40;69.10;;;;;;4918487;29;20880;-75
2023/09/13 13:13:21;;;;;;;2.20;1.80;;;25.50;70.10;;;;;;4918635;29;20472;-74
2023/09/13 13:15:48;;;;;;;2.20;1.80;;;25.50;69.30;;;;;;4918350;29;20472;-74
2023/09/13 13:18:14;;;;;;;2.10;1.83;;;25.50;69.80;;;;;;4918172;29;20926;-74
2023/09/13 13:20:45;;;;;;;2.30;1.97;;;25.60;68.70;;;;;;4918348;29;20449;-74
2023/09/13 13:23:12;;;;;;;2.93;1.93;;;25.50;69.00;;;;;;4918541;29;20821;-75
2023/09/13 13:25:41;;;;;;;2.57;2.07;;;25.80;68.40;;;;;;4918366;29;20456;-75
2023/09/13 13:28:08;;;;;;;3.20;1.40;;;26.00;67.30;;;;;;4918085;29;20951;-75
2023/09/13 13:30:36;;;;;;;3.10;1.53;;;26.20;66.10;;;;;;4918271;29;20448;-74
2023/09/13 13:33:03;;;;;;;2.57;1.77;;;26.10;65.70;;;;;;4918182;29;20492;-74
2023/09/13 13:35:30;;;;;;;2.67;1.73;;;26.20;64.90;;;;;;4918406;29;20480;-74
2023/09/13 13:37:57;;;;;;;3.33;2.03;;;26.20;65.00;;;;;;4918439;29;20453;-75
2023/09/13 13:40:23;;;;;;;2.43;1.93;;;26.10;65.80;;;;;;4917796;29;20459;-75
2023/09/13 13:42:50;;;;;;;2.23;1.53;;;26.10;65.80;;;;;;4918049;29;20441;-75
2023/09/13 13:45:17;;;;;;;2.20;1.53;;;26.00;65.60;;;;;;4918100;29;20455;-75
2023/09/13 13:47:46;;;;;;;2.30;1.60;;;26.00;65.80;;;;;;4917940;29;20841;-75
2023/09/13 13:50:13;;;;;;;3.17;1.47;;;26.00;65.50;;;;;;4917603;29;20796;-73
2023/09/13 13:52:39;;;;;;;2.00;1.30;;;26.20;66.00;;;;;;4917756;29;20492;-76
2023/09/13 13:55:07;;;;;;;2.30;2.00;;;26.30;65.10;;;;;;4917941;29;20456;-75
2023/09/13 13:57:38;;;;;;;2.30;2.03;;;26.40;66.10;;;;;;4917966;29;20505;-75
2023/09/13 14:00:06;;;;;;;2.53;1.30;;;26.60;65.00;;;;;;4917794;29;20487;-75
2023/09/13 14:02:36;;;;;;;2.10;1.63;;;26.60;64.40;;;;;;4917669;29;20459;-74
2023/09/13 14:05:05;;;;;;;2.80;1.53;;;26.60;64.10;;;;;;4917397;29;20943;-75
2023/09/13 14:07:32;;;;;;;1.90;1.50;;;26.40;64.60;;;;;;4917444;29;20468;-74
2023/09/13 14:09:59;;;;;;;2.30;1.63;;;26.40;63.90;;;;;;4917427;29;20488;-74
2023/09/13 14:12:26;;;;;;;2.10;1.50;;;26.10;65.80;;;;;;4917441;29;20567;-73
2023/09/13 14:14:53;;;;;;;1.90;1.43;;;26.00;65.30;;;;;;4917511;29;20452;-73
2023/09/13 14:17:20;;;;;;;2.43;1.50;;;25.80;65.60;;;;;;4917409;29;20487;-71
2023/09/13 14:19:47;;;;;;;2.03;1.63;;;25.80;66.00;;;;;;4916510;29;20965;-74
2023/09/13 14:22:15;;;;;;;2.20;1.77;;;25.60;67.50;;;;;;4917506;29;20457;-75
2023/09/13 14:24:41;;;;;;;2.90;1.70;;;25.70;66.90;;;;;;4917146;29;20947;-75
2023/09/13 14:27:08;;;;;;;1.80;1.40;;;26.20;65.40;;;;;;4917096;29;21006;-75
2023/09/13 14:29:35;;;;;;;2.23;1.80;;;26.90;64.30;;;;;;4917279;29;20457;-75
2023/09/13 14:32:03;;;;;;;2.83;1.50;;;27.20;62.90;;;;;;4917598;29;20544;-75
2023/09/13 14:34:33;;;;;;;1.93;1.63;;;27.00;63.00;;;;;;4917529;29;20507;-75
2023/09/13 14:36:59;;;;;;;2.00;1.43;;;26.70;64.70;;;;;;4917236;29;20477;-75
2023/09/13 14:39:27;;;;;;;2.27;1.30;;;26.50;64.60;;;;;;4917111;29;20452;-75
2023/09/13 14:41:54;;;;;;;1.80;1.33;;;26.40;65.60;;;;;;4917261;29;20455;-75
2023/09/13 14:44:21;;;;;;;2.10;1.40;;;26.40;64.80;;;;;;4917025;29;20484;-74
2023/09/13 14:46:47;;;;;;;2.10;1.80;;;26.20;65.10;;;;;;4916934;29;20477;-75
2023/09/13 14:49:19;;;;;;;2.30;1.60;;;26.00;65.60;;;;;;4917044;29;20448;-75
2023/09/13 14:51:46;;;;;;;2.07;1.80;;;25.80;66.20;;;;;;4916894;29;20918;-75
2023/09/13 14:54:13;;;;;;;2.13;1.80;;;25.80;66.90;;;;;;4916928;29;20484;-74
2023/09/13 14:56:41;;;;;;;1.77;1.33;;;25.80;66.30;;;;;;4917041;29;20468;-75
2023/09/13 14:59:08;;;;;;;2.70;1.60;;;25.80;66.20;;;;;;4917026;29;20463;-75
2023/09/13 15:01:34;;;;;;;2.40;1.67;;;25.50;66.70;;;;;;4916892;29;20448;-75
2023/09/13 15:04:01;;;;;;;2.57;1.70;;;25.40;67.50;;;;;;4916872;29;20440;-75
2023/09/13 15:06:28;;;;;;;2.40;1.53;;;25.20;67.60;;;;;;4916691;29;20477;-74
2023/09/13 15:08:56;;;;;;;3.63;1.67;;;25.10;68.10;;;;;;4916838;29;20448;-75
2023/09/13 15:11:24;;;;;;;2.27;1.93;;;25.10;68.80;;;;;;4916988;29;20453;-75
2023/09/13 15:13:52;;;;;;;2.90;1.20;;;25.00;69.00;;;;;;4916848;29;20488;-75
2023/09/13 15:16:18;;;;;;;2.20;1.60;;;24.90;68.90;;;;;;4916496;29;20480;-74
2023/09/13 15:18:45;;;;;;;2.27;1.50;;;24.80;68.50;;;;;;4916760;29;20441;-75
2023/09/13 15:21:12;;;;;;;2.00;1.60;;;24.80;68.80;;;;;;4916729;29;20452;-75
2023/09/13 15:23:38;;;;;;;2.20;1.87;;;24.90;68.90;;;;;;4916925;29;20449;-75
2023/09/13 15:26:05;;;;;;;2.50;1.90;;;25.10;68.30;;;;;;4916870;29;20473;-74
2023/09/13 15:28:32;;;;;;;2.27;1.97;;;25.00;68.70;;;;;;4916554;29;20965;-74
2023/09/13 15:31:00;;;;;;;3.70;2.00;;;24.90;69.20;;;;;;4917835;29;20457;-75
2023/09/13 15:33:26;;;;;;;2.10;1.70;;;25.00;69.00;;;;;;4920085;29;20546;-75
2023/09/13 15:35:53;;;;;;;2.13;1.90;;;25.10;69.10;;;;;;4920216;29;20468;-74
2023/09/13 15:38:20;;;;;;;4.00;1.90;;;25.00;69.40;;;;;;4920269;29;20456;-74
2023/09/13 15:40:47;;;;;;;3.10;1.70;;;24.80;69.80;;;;;;4920221;29;20824;-75
2023/09/13 15:43:15;;;;;;;3.57;2.00;;;24.70;70.20;;;;;;4919918;29;20455;-75
2023/09/13 15:45:41;;;;;;;3.83;2.00;;;24.50;70.60;;;;;;4919989;29;20448;-75
2023/09/13 15:48:09;;;;;;;2.50;1.83;;;24.40;71.00;;;;;;4920082;29;20448;-74
2023/09/13 15:50:36;;;;;;;2.40;1.73;;;24.40;71.10;;;;;;4920082;29;20448;-74
2023/09/13 15:53:03;;;;;;;2.90;2.30;;;24.40;71.60;;;;;;4919827;29;20495;-75
2023/09/13 15:55:30;;;;;;;2.23;1.90;;;24.40;72.20;;;;;;4919760;29;20456;-75
2023/09/13 15:57:57;;;;;;;2.10;1.80;;;24.30;73.20;;;;;;4919823;29;20453;-72
2023/09/13 16:00:23;;;;;;;2.30;1.80;;;24.40;73.30;;;;;;4919693;29;20452;-75
2023/09/13 16:02:50;;;;;;;2.30;1.70;;;24.30;73.40;;;;;;4919829;29;20456;-75
2023/09/13 16:05:18;;;;;;;5.03;2.40;;;24.50;73.30;;;;;;4919664;29;20444;-75
2023/09/13 16:07:45;;;;;;;2.50;1.90;;;24.70;72.00;;;;;;4919584;29;20468;-75
2023/09/13 16:10:12;;;;;;;2.60;1.77;;;24.60;71.00;;;;;;4919695;29;20444;-75
2023/09/13 16:12:40;;;;;;;3.43;2.07;;;24.60;70.40;;;;;;4919741;29;20453;-75
2023/09/13 16:15:07;;;;;;;2.73;1.73;;;24.50;70.60;;;;;;4919655;29;20433;-75
2023/09/13 16:17:34;;;;;;;2.70;1.77;;;24.70;70.30;;;;;;4927811;23;20690;-75
2023/09/13 16:20:02;;;;;;;3.47;2.00;;;24.80;69.90;;;;;;4919543;29;20440;-75
2023/09/13 16:22:30;;;;;;;2.30;1.97;;;24.80;70.00;;;;;;4919502;29;20448;-75
2023/09/13 16:24:59;;;;;;;2.97;2.20;;;24.70;68.60;;;;;;4919510;29;20826;-76
2023/09/13 16:27:26;;;;;;;2.30;1.70;;;24.70;68.60;;;;;;4918929;29;20998;-75
2023/09/13 16:29:52;;;;;;;3.43;1.90;;;24.70;69.40;;;;;;4919329;29;20456;-75
2023/09/13 16:32:19;;;;;;;1.93;1.70;;;24.70;69.00;;;;;;4919187;29;20448;-75
2023/09/13 16:34:45;;;;;;;2.63;1.80;;;24.70;69.30;;;;;;4919007;29;20492;-74
2023/09/13 16:37:12;;;;;;;2.70;1.87;;;24.80;69.30;;;;;;4919037;29;20468;-75
2023/09/13 16:39:40;;;;;;;3.47;2.23;;;24.90;69.20;;;;;;4919632;29;20888;-76
2023/09/13 16:42:08;;;;;;;2.20;1.40;;;24.90;68.80;;;;;;4918263;29;20445;-75
2023/09/13 16:44:35;;;;;;;2.30;1.80;;;24.80;69.10;;;;;;4919083;29;20441;-75
2023/09/13 16:47:01;;;;;;;1.97;1.73;;;24.70;69.40;;;;;;4918853;29;20481;-75
2023/09/13 16:49:29;;;;;;;2.77;2.00;;;24.70;69.50;;;;;;4918952;29;20477;-74
2023/09/13 16:51:56;;;;;;;2.43;1.87;;;24.60;69.80;;;;;;4918538;29;20965;-75